Farrell, MS (38630)

2:20 PM CDT on July 28, 2014 (GMT -0500)
Clarksdale (KMSCLARK2) Elev 164 ft | 34.10 °N, 90.61 °W | Change Station

Current weather conditions updated 1 second ago

Clear
Clear
85.1 °F
Feels Like 89 °F
N
6.0
Wind Variable Wind from NW
Gusts 8.0 mph

Today is forecast to be Cooler than yesterday.

Today
High -- | Low -- °F
--% Chance of Precip.
Yesterday
High -- | Low -- °F
Precip. -- in
6:10 AM 8:06 PM
Waxing Crescent, 3% visible
Pressure 30.06 in
Visibility 10.0 miles
Clouds Clear
Heat Index 89 °F
Dew Point 69 °F
Humidity 59%
Rainfall 0.00 in
Snow Depth Not available.
UV 11 out of 12
Pollen 6.20 out of 12
Air Quality Not available.
Flu Activity Not available.
METAR KCKM 281915Z AUTO 32008G16KT 10SM CLR 28/18 A3006 RMK AO1

More Conditions Fewer Conditions

Pressure 30.06 in
Visibility 10.0 miles
Clouds Clear
Heat Index 89 °F
Dew Point 69 °F
Humidity 59%
Rainfall 0.00 in
Snow Depth Not available.
UV 11 out of 12
Pollen 6.20 out of 12
Air Quality Not available.
Flu Activity Not available.
METAR KCKM 281915Z AUTO 32008G16KT 10SM CLR 28/18 A3006 RMK AO1

More Conditions Fewer Conditions

10-Day Weather Forecast

Almanac

Astronomy

Jul. 28, 2014 Rise Set
Actual Time 6:10 AM CDT 8:06 PM CDT
Civil Twilight 5:42 AM CDT 8:34 PM CDT
Nautical Twilight 5:09 AM CDT 9:07 PM CDT
Astronomical Twilight 4:33 AM CDT 9:43 PM CDT
Moon 7:45 AM CDT 8:56 PM CDT
Length of Visible Light 14h 51m
Length of Day
13h 56m
Tomorrow will be 1m 30s shorter.
Waxing Crescent, 3% of the Moon is Illuminated
Today
Waxing Crescent
Aug 3
First Quarter
Aug 10
Full
Aug 17
Last Quarter
Aug 25
New

Today's Extremes

State Highs State Lows

Community

WunderPhotos

Upload Photos

1,738,438 photos uploaded!

Nearby

Snow Depth

Station Depth Elevation
No new snow has been reported.

Earthquake Activity

City Distance Mag. Time & Date
No recent earthquake activity has been reported nearby.
Minimum magnitude displayed is 2.5.

Coastal Water Temperatures

Place Temperature
No Stations Reporting

Nearby Weather Stations

Station Location Temp. Heat Index Dew Point Humidity Wind Precip. Elev Updated Type
Clarksdale, Clarksdale, MS 85.1 °F 89 °F 69 °F 59% NW  at  6.0 mph 0.00 in / hr 164 ft 2:20 PM CDT Rapid Fire
MesoWest VANCE , Rome, MS 84 °F 86 °F 66 °F 56% NNW  at  5 mph 0.00 in / hr 149 ft 1:00 PM CDT MADIS

Show More Stations Show Fewer Stations